Time;durP1;ratioP1;P1;durP2;ratioP2;P2;SDS_P1;SDS_P2;PMS_P1;PMS_P2;Temp;Humidity;BMP_temperature;BMP_pressure;BME280_temperature;BME280_humidity;BME280_pressure;Samples;Min_cycle;Max_cycle;Signal;HPM_P1;HPM_P2
2023/03/19 16:47:11;;;;;;;22.62;11.60;;;10.10;92.60;;;;;;1959136;73;25810;-59
2023/03/19 16:49:40;;;;;;;31.60;11.17;;;10.00;92.70;;;;;;1918449;74;21047;-60
2023/03/19 16:52:20;;;;;;;24.95;11.73;;;10.00;92.70;;;;;;1918343;75;21061;-60
2023/03/19 16:54:50;;;;;;;25.12;11.33;;;10.00;92.70;;;;;;1918398;75;21021;-60
2023/03/19 16:57:20;;;;;;;25.82;12.03;;;10.10;92.80;;;;;;1918328;75;21007;-60
2023/03/19 16:59:49;;;;;;;25.35;12.70;;;10.10;92.80;;;;;;1918342;75;21007;-60
2023/03/19 17:02:19;;;;;;;23.22;11.12;;;10.10;92.80;;;;;;1918275;75;21069;-60
2023/03/19 17:04:48;;;;;;;26.12;11.90;;;10.20;92.80;;;;;;1918363;75;21054;-60
2023/03/19 17:07:17;;;;;;;33.53;12.95;;;10.20;92.80;;;;;;1918348;75;21081;-60
2023/03/19 17:09:46;;;;;;;31.35;12.03;;;10.20;92.80;;;;;;1918355;75;21035;-58
2023/03/19 17:12:17;;;;;;;34.90;12.03;;;10.20;92.80;;;;;;1918285;75;21155;-58
2023/03/19 17:14:48;;;;;;;27.52;12.82;;;10.20;92.70;;;;;;1918624;75;21006;-60
2023/03/19 17:17:20;;;;;;;22.87;12.75;;;10.20;92.70;;;;;;1918733;75;21397;-60
2023/03/19 17:19:50;;;;;;;25.60;12.15;;;10.20;92.70;;;;;;1918561;75;21019;-60
2023/03/19 17:22:19;;;;;;;26.57;12.95;;;10.20;92.90;;;;;;1918536;74;21482;-60
2023/03/19 17:24:48;;;;;;;36.17;12.88;;;10.20;92.70;;;;;;1918653;75;21149;-60
2023/03/19 17:27:17;;;;;;;29.00;12.58;;;10.20;92.70;;;;;;1918566;75;21085;-60
2023/03/19 17:29:46;;;;;;;25.97;11.97;;;10.20;92.70;;;;;;1918539;75;21042;-60
2023/03/19 17:32:18;;;;;;;30.92;10.82;;;10.20;92.70;;;;;;1918530;75;21087;-60
2023/03/19 17:34:48;;;;;;;24.90;11.90;;;10.30;92.70;;;;;;1918585;74;20999;-60
2023/03/19 17:37:17;;;;;;;23.65;11.22;;;10.30;92.60;;;;;;1918536;75;20987;-60
2023/03/19 17:39:46;;;;;;;25.32;12.43;;;10.20;92.60;;;;;;1918533;75;21086;-60
2023/03/19 17:42:18;;;;;;;18.52;9.85;;;10.20;92.60;;;;;;1918496;75;21034;-61
2023/03/19 17:44:47;;;;;;;27.48;13.00;;;10.20;92.50;;;;;;1918450;74;21031;-58
2023/03/19 17:47:18;;;;;;;21.97;12.55;;;10.20;92.50;;;;;;1924177;74;21163;-60
2023/03/19 17:49:47;;;;;;;26.20;11.45;;;10.20;92.60;;;;;;1925281;74;21515;-60
2023/03/19 17:52:18;;;;;;;20.72;11.12;;;10.10;92.60;;;;;;1925715;74;21031;-60
2023/03/19 17:54:47;;;;;;;19.82;10.45;;;10.10;92.70;;;;;;1925701;74;21491;-60
2023/03/19 17:57:16;;;;;;;21.50;10.60;;;10.20;92.70;;;;;;1925220;74;21457;-60
2023/03/19 17:59:45;;;;;;;22.67;11.08;;;10.20;92.60;;;;;;1924956;74;21003;-60
2023/03/19 18:02:26;;;;;;;24.32;11.88;;;10.20;92.60;;;;;;1924962;74;20998;-60
2023/03/19 18:04:55;;;;;;;16.20;10.58;;;10.20;92.60;;;;;;1924863;74;20994;-60
2023/03/19 18:07:25;;;;;;;19.87;10.15;;;10.20;92.50;;;;;;1924802;74;21034;-60
2023/03/19 18:09:54;;;;;;;21.90;10.63;;;10.20;92.50;;;;;;1924823;74;21027;-58
2023/03/19 18:12:23;;;;;;;18.52;10.65;;;10.30;92.60;;;;;;1924898;74;21136;-58
2023/03/19 18:14:52;;;;;;;23.47;11.68;;;10.20;92.60;;;;;;1924807;74;21096;-58
2023/03/19 18:17:21;;;;;;;23.25;11.33;;;10.20;92.50;;;;;;1924775;74;21084;-60
2023/03/19 18:19:51;;;;;;;22.77;12.13;;;10.20;92.50;;;;;;1924929;74;21084;-60
2023/03/19 18:22:20;;;;;;;25.25;11.60;;;10.20;92.50;;;;;;1924771;74;21068;-60
2023/03/19 18:24:49;;;;;;;18.85;11.68;;;10.20;92.60;;;;;;1924859;74;21526;-60
2023/03/19 18:27:23;;;;;;;27.52;11.50;;;10.20;92.60;;;;;;1924863;74;21065;-60
2023/03/19 18:29:52;;;;;;;22.05;11.15;;;10.20;92.50;;;;;;1924986;74;21022;-60
2023/03/19 18:32:24;;;;;;;27.87;11.73;;;10.20;92.50;;;;;;1924323;74;21118;-60
2023/03/19 18:34:53;;;;;;;17.42;10.75;;;10.20;92.60;;;;;;1924728;74;21019;-60
2023/03/19 18:37:22;;;;;;;19.37;12.03;;;10.20;92.50;;;;;;1924983;74;21038;-60
2023/03/19 18:39:52;;;;;;;20.60;11.53;;;10.10;92.50;;;;;;1924886;74;21072;-60
2023/03/19 18:42:22;;;;;;;17.87;10.75;;;10.10;92.50;;;;;;1924834;74;21132;-60
2023/03/19 18:44:51;;;;;;;14.78;10.10;;;10.10;92.50;;;;;;1924908;74;21011;-60
2023/03/19 18:47:20;;;;;;;14.28;10.18;;;10.10;92.60;;;;;;1913370;74;21035;-60
2023/03/19 18:49:49;;;;;;;18.92;10.85;;;10.10;92.50;;;;;;1905547;75;21070;-60
2023/03/19 18:52:18;;;;;;;15.80;11.33;;;10.10;92.50;;;;;;1905527;75;21419;-60
2023/03/19 18:54:47;;;;;;;20.85;11.93;;;10.10;92.60;;;;;;1905570;75;21179;-60
2023/03/19 18:57:17;;;;;;;23.98;11.45;;;10.10;92.60;;;;;;1905596;75;21095;-60
2023/03/19 18:59:46;;;;;;;18.95;12.18;;;10.10;92.60;;;;;;1905360;75;21113;-60
2023/03/19 19:02:30;;;;;;;17.32;10.95;;;10.20;92.50;;;;;;1905465;75;21079;-60
2023/03/19 19:04:59;;;;;;;16.60;9.33;;;10.10;92.50;;;;;;1905679;75;21066;-60
2023/03/19 19:07:28;;;;;;;18.37;10.10;;;10.10;92.50;;;;;;1905416;75;21015;-60
2023/03/19 19:09:57;;;;;;;18.73;11.78;;;10.20;92.60;;;;;;1905476;75;21104;-60
2023/03/19 19:12:27;;;;;;;19.00;11.15;;;10.20;92.50;;;;;;1905324;75;21007;-60
2023/03/19 19:14:57;;;;;;;25.30;11.85;;;10.20;92.50;;;;;;1905354;75;20982;-61
2023/03/19 19:17:28;;;;;;;15.00;11.90;;;10.20;92.60;;;;;;1905225;75;21079;-60
2023/03/19 19:19:57;;;;;;;23.83;12.20;;;10.10;92.50;;;;;;1905307;75;21138;-60
2023/03/19 19:22:28;;;;;;;17.40;12.25;;;10.20;92.60;;;;;;1905273;75;20995;-60
2023/03/19 19:24:56;;;;;;;17.67;12.00;;;10.10;92.50;;;;;;1905329;75;21027;-60
2023/03/19 19:27:26;;;;;;;23.87;13.22;;;10.10;92.50;;;;;;1905299;75;21137;-60
2023/03/19 19:29:55;;;;;;;17.75;12.63;;;10.10;92.60;;;;;;1905292;75;21153;-60
2023/03/19 19:32:28;;;;;;;19.95;12.43;;;10.10;92.60;;;;;;1905309;75;21121;-61
2023/03/19 19:34:57;;;;;;;18.30;12.90;;;10.10;92.60;;;;;;1905323;75;21087;-60
2023/03/19 19:37:26;;;;;;;17.92;12.43;;;10.10;92.60;;;;;;1905241;75;21575;-60
2023/03/19 19:39:55;;;;;;;26.40;12.65;;;10.10;92.60;;;;;;1905314;75;21232;-60
2023/03/19 19:42:24;;;;;;;19.73;12.40;;;10.00;92.60;;;;;;1905246;75;21099;-60
2023/03/19 19:44:57;;;;;;;22.00;12.70;;;10.00;92.60;;;;;;1905430;74;21003;-60
2023/03/19 19:47:27;;;;;;;22.17;13.03;;;10.10;92.60;;;;;;1911902;74;21039;-61
2023/03/19 19:49:57;;;;;;;17.55;12.43;;;10.10;92.70;;;;;;1924659;74;21584;-60
2023/03/19 19:52:26;;;;;;;21.50;13.85;;;10.00;92.60;;;;;;1924682;74;21162;-60
2023/03/19 19:54:55;;;;;;;22.10;12.45;;;10.00;92.70;;;;;;1924623;74;20982;-60
2023/03/19 19:57:24;;;;;;;22.70;13.30;;;10.00;92.70;;;;;;1924842;74;21150;-59
2023/03/19 19:59:54;;;;;;;20.88;10.78;;;9.90;92.70;;;;;;1924661;74;21086;-58
2023/03/19 20:02:30;;;;;;;27.00;15.48;;;9.90;92.70;;;;;;1924719;74;21236;-58
2023/03/19 20:04:59;;;;;;;17.15;11.80;;;9.90;92.80;;;;;;1924679;74;21813;-58
2023/03/19 20:07:28;;;;;;;25.95;14.18;;;9.90;92.80;;;;;;1924602;74;21213;-60
2023/03/19 20:09:57;;;;;;;20.52;12.03;;;9.90;92.80;;;;;;1924762;74;21209;-60
2023/03/19 20:12:32;;;;;;;21.02;12.68;;;9.90;92.90;;;;;;1924610;74;21080;-58
2023/03/19 20:15:01;;;;;;;22.00;13.45;;;9.90;93.00;;;;;;1924857;74;21185;-58
2023/03/19 20:17:30;;;;;;;21.00;12.15;;;9.90;92.90;;;;;;1924707;74;21094;-58
2023/03/19 20:19:59;;;;;;;20.15;11.88;;;9.90;92.90;;;;;;1924684;74;21090;-58
2023/03/19 20:22:28;;;;;;;19.82;11.53;;;9.90;92.90;;;;;;1924816;74;21070;-58
2023/03/19 20:24:57;;;;;;;20.32;12.53;;;9.80;93.00;;;;;;1924845;74;21013;-58
2023/03/19 20:27:29;;;;;;;24.02;12.45;;;9.90;93.00;;;;;;1924852;74;21006;-58
2023/03/19 20:29:58;;;;;;;21.20;12.28;;;9.90;93.10;;;;;;1925012;74;21070;-58
2023/03/19 20:32:36;;;;;;;21.00;12.70;;;9.90;93.10;;;;;;1924819;74;21128;-59
2023/03/19 20:35:08;;;;;;;26.40;12.43;;;9.80;93.20;;;;;;1924950;74;21074;-59
2023/03/19 20:37:37;;;;;;;23.87;12.37;;;9.80;93.20;;;;;;1924208;74;21237;-58
2023/03/19 20:40:07;;;;;;;23.90;11.95;;;9.80;93.40;;;;;;1924821;74;21038;-58
2023/03/19 20:42:36;;;;;;;23.25;12.60;;;9.80;93.10;;;;;;1924753;74;21038;-58
2023/03/19 20:45:08;;;;;;;30.85;13.03;;;9.80;93.10;;;;;;1924739;74;21011;-60
2023/03/19 20:47:37;;;;;;;25.55;12.65;;;9.90;93.20;;;;;;1924546;74;21778;-59
2023/03/19 20:50:07;;;;;;;29.00;13.13;;;9.90;93.30;;;;;;1924872;74;21090;-60
2023/03/19 20:52:36;;;;;;;21.90;12.07;;;9.90;93.30;;;;;;1924704;74;21094;-60
2023/03/19 20:55:07;;;;;;;21.10;12.60;;;9.90;93.30;;;;;;1924682;74;21217;-58
2023/03/19 20:57:35;;;;;;;26.45;13.38;;;9.90;93.20;;;;;;1924648;74;21004;-60
2023/03/19 21:00:13;;;;;;;27.48;13.25;;;9.90;93.20;;;;;;1924836;74;21164;-58
2023/03/19 21:02:42;;;;;;;27.27;12.95;;;9.90;93.30;;;;;;1917559;74;21065;-60
2023/03/19 21:05:18;;;;;;;28.42;14.40;;;9.90;93.20;;;;;;1924597;74;21124;-60
2023/03/19 21:07:49;;;;;;;28.75;13.55;;;9.90;93.20;;;;;;1924638;74;21116;-60
2023/03/19 21:10:33;;;;;;;30.12;12.58;;;9.90;93.30;;;;;;1924653;74;21639;-60
2023/03/19 21:13:03;;;;;;;25.75;12.80;;;9.90;93.20;;;;;;1924708;74;21038;-60
2023/03/19 21:15:33;;;;;;;37.67;14.33;;;9.90;93.10;;;;;;1923183;74;21208;-60
2023/03/19 21:18:02;;;;;;;32.50;13.13;;;9.90;93.20;;;;;;1924732;74;21519;-60
2023/03/19 21:20:32;;;;;;;26.00;13.15;;;9.90;93.20;;;;;;1924573;74;21097;-60
2023/03/19 21:23:27;;;;;;;28.90;13.88;;;9.90;93.20;;;;;;1924534;74;21061;-60
2023/03/19 21:25:56;;;;;;;30.72;12.68;;;9.90;93.20;;;;;;1924605;74;21039;-59
2023/03/19 21:28:31;;;;;;;18.80;11.97;;;9.90;93.20;;;;;;1924577;74;21614;-60
2023/03/19 21:31:01;;;;;;;32.67;13.62;;;9.90;93.30;;;;;;1924684;74;21529;-59
2023/03/19 21:33:32;;;;;;;20.70;13.95;;;9.90;93.50;;;;;;1924947;74;21039;-59
2023/03/19 21:36:02;;;;;;;27.62;12.93;;;9.80;93.40;;;;;;1924944;74;21762;-59
2023/03/19 21:38:31;;;;;;;34.67;13.60;;;9.80;93.40;;;;;;1924930;74;21243;-59
2023/03/19 21:41:03;;;;;;;25.97;14.53;;;9.80;93.40;;;;;;1924812;74;21192;-59
2023/03/19 21:43:38;;;;;;;36.28;13.93;;;9.80;93.30;;;;;;1923291;74;21469;-59
2023/03/19 21:46:08;;;;;;;40.17;15.00;;;9.80;93.40;;;;;;1924641;74;21050;-59
2023/03/19 21:48:42;;;;;;;34.53;14.87;;;9.80;93.40;;;;;;1919382;74;21086;-59
2023/03/19 21:51:13;;;;;;;23.70;12.45;;;9.80;93.40;;;;;;1905303;75;21110;-59
2023/03/19 21:53:44;;;;;;;25.17;14.20;;;9.80;93.30;;;;;;1904844;74;21106;-59
2023/03/19 21:56:22;;;;;;;26.05;13.93;;;9.80;93.40;;;;;;1905523;75;20984;-59
2023/03/19 21:58:55;;;;;;;39.92;15.05;;;9.80;93.40;;;;;;1905538;75;21055;-59
2023/03/19 22:01:25;;;;;;;27.73;14.30;;;9.80;93.40;;;;;;1905527;75;21105;-59
2023/03/19 22:03:55;;;;;;;28.95;14.95;;;9.80;93.50;;;;;;1905484;75;21126;-59
2023/03/19 22:06:25;;;;;;;31.60;14.30;;;9.70;93.50;;;;;;1905495;75;21123;-59
2023/03/19 22:08:54;;;;;;;35.65;14.35;;;9.80;93.50;;;;;;1905439;75;21003;-59
2023/03/19 22:11:31;;;;;;;44.20;14.80;;;9.70;93.40;;;;;;1905384;75;21071;-59
2023/03/19 22:14:05;;;;;;;38.75;12.50;;;9.70;93.40;;;;;;1905499;75;21097;-59
2023/03/19 22:16:34;;;;;;;31.45;13.90;;;9.80;93.50;;;;;;1905483;74;21486;-59
2023/03/19 22:19:04;;;;;;;33.73;12.58;;;9.80;93.30;;;;;;1905320;74;21031;-59
2023/03/19 22:21:34;;;;;;;26.87;13.88;;;9.70;93.40;;;;;;1905409;74;21067;-59
2023/03/19 22:24:03;;;;;;;28.30;13.70;;;9.80;93.40;;;;;;1905284;75;21264;-59
2023/03/19 22:26:37;;;;;;;34.60;14.25;;;9.70;93.50;;;;;;1905331;75;21087;-59
2023/03/19 22:29:18;;;;;;;41.35;14.55;;;9.70;93.50;;;;;;1905473;75;21067;-59
2023/03/19 22:31:54;;;;;;;32.30;15.05;;;9.70;93.50;;;;;;1904433;74;21494;-59
2023/03/19 22:34:26;;;;;;;39.15;15.80;;;9.70;93.60;;;;;;1905345;75;21003;-59
2023/03/19 22:36:55;;;;;;;35.75;16.20;;;9.70;93.60;;;;;;1905259;75;21122;-59
2023/03/19 22:39:24;;;;;;;30.55;16.97;;;9.70;93.70;;;;;;1905384;75;21123;-59
2023/03/19 22:41:53;;;;;;;38.23;16.17;;;9.60;93.60;;;;;;1905226;75;21019;-59
2023/03/19 22:44:32;;;;;;;34.70;17.25;;;9.60;93.60;;;;;;1905366;75;21307;-59
2023/03/19 22:47:02;;;;;;;44.88;16.67;;;9.60;93.60;;;;;;1905298;75;21154;-59
2023/03/19 22:49:32;;;;;;;40.10;17.60;;;9.60;93.60;;;;;;1912796;74;21219;-59
2023/03/19 22:52:01;;;;;;;35.92;15.28;;;9.60;93.60;;;;;;1924770;74;21173;-59
2023/03/19 22:54:30;;;;;;;43.80;20.15;;;9.60;93.60;;;;;;1924747;74;21517;-58
2023/03/19 22:56:59;;;;;;;40.33;19.32;;;9.60;93.60;;;;;;1924760;74;21152;-59
2023/03/19 22:59:29;;;;;;;38.85;17.52;;;9.60;93.60;;;;;;1924733;74;21130;-59
2023/03/19 23:01:58;;;;;;;37.83;18.10;;;9.60;93.70;;;;;;1924689;74;21067;-59
2023/03/19 23:04:30;;;;;;;35.60;18.25;;;9.60;93.70;;;;;;1924749;74;21185;-59
2023/03/19 23:07:00;;;;;;;47.60;20.95;;;9.60;93.70;;;;;;1924726;74;21058;-59
2023/03/19 23:09:31;;;;;;;38.53;18.73;;;9.60;93.60;;;;;;1924814;74;20999;-59
2023/03/19 23:12:01;;;;;;;44.73;21.73;;;9.50;93.60;;;;;;1924710;74;21304;-59
2023/03/19 23:14:31;;;;;;;41.83;19.37;;;9.50;93.70;;;;;;1924773;74;21042;-59
2023/03/19 23:17:02;;;;;;;56.73;19.80;;;9.50;93.60;;;;;;1924882;74;21157;-59
2023/03/19 23:19:33;;;;;;;42.60;19.23;;;9.50;93.80;;;;;;1924727;74;21576;-59
2023/03/19 23:22:03;;;;;;;49.93;21.27;;;9.50;93.80;;;;;;1924690;74;21205;-59
2023/03/19 23:24:33;;;;;;;46.35;18.98;;;9.50;93.70;;;;;;1924779;74;21129;-59
2023/03/19 23:27:02;;;;;;;42.27;21.82;;;9.50;93.80;;;;;;1924904;74;21215;-59
2023/03/19 23:29:40;;;;;;;43.45;21.70;;;9.50;93.80;;;;;;1924879;74;21101;-58
2023/03/19 23:32:11;;;;;;;43.87;20.37;;;9.50;93.70;;;;;;1924854;74;21155;-59
2023/03/19 23:34:40;;;;;;;46.35;20.88;;;9.50;93.70;;;;;;1924790;74;21058;-59
2023/03/19 23:37:09;;;;;;;41.92;20.25;;;9.50;93.80;;;;;;1924713;74;21106;-59
2023/03/19 23:39:41;;;;;;;45.60;20.57;;;9.50;93.70;;;;;;1924850;74;20983;-59
2023/03/19 23:42:14;;;;;;;46.88;21.75;;;9.50;93.70;;;;;;1924664;74;21270;-58
2023/03/19 23:44:43;;;;;;;41.08;18.90;;;9.40;93.70;;;;;;1922827;74;21288;-59
2023/03/19 23:47:12;;;;;;;37.60;20.25;;;9.40;93.80;;;;;;1924719;74;21182;-59
2023/03/19 23:49:41;;;;;;;48.45;25.37;;;9.40;93.80;;;;;;1924652;74;21109;-58
2023/03/19 23:52:13;;;;;;;43.70;21.02;;;9.40;93.80;;;;;;1924754;74;21150;-59
2023/03/19 23:54:42;;;;;;;43.75;21.15;;;9.40;93.90;;;;;;1924681;74;21758;-59
2023/03/19 23:57:13;;;;;;;52.73;20.25;;;9.30;93.70;;;;;;1924721;74;21070;-59
2023/03/19 23:59:47;;;;;;;50.03;21.80;;;9.40;93.80;;;;;;1923516;74;21018;-59
